Forside
METAR-TAF:

METAR-TAF

Lufthavne :

Gifu, Japan

Breddekreds: 35-23N, længdekreds: 136-52E, højde: 39 m

Aktuelle vejr

Denne rapport blev lavet for 2 timer og 5 minutter siden, kl. 00:30 UTC
Vind 2 kt fra varierende retninger
Temperatur 24°C
Fugtighed 61%
Tryk 1011 hPa
Sigt 10 km eller mere
Nogle få skyer i en højde af 2000 ft
Spredte skyer i en højde af 5000 ft
Brudte skyer i en højde af 25000 ft

METAR: RJNG 250030Z VRB02KT 9999 FEW020 SCT050 BKN250 24/16 Q1011 RMK 1CU020 3SC050 A2988

Tid: 11:35 (02:35 UTC)


TAF: fraværende

Vejrobservationer og prognoser fra mere end 4000 lufthavne (METAR og TAF).

De gule og røde prikker repræsenterer de meteorologiske stationer.

Flyt musen over at se navnet på stationen.

Så klik over at se vejr observationer og prognoser.

At skifte det kort: Klik på de grønne knapper med et sort kors for at zoome ind; på den grønne knap med en bindestreg for at zoome ud; eller på de grønne pile for tilstødende kort.


METAR-TAF: